Badger, California
Current Conditions -  °F | °C
As of 1:53 AM on Saturday 01 Nov 2014 (Local Time) from KFAT Reporting Station
Light Rain Light Rain  
Wind Chill: 55°   Ceiling: 5500
Heat Index: 55°   Visibility: 10mi
Dew Point: 52°   Wind: 12mph
Humidity: 89%   Direction: 120°ESE
Pressure: 29.8"   Gusts: NA
Location:  36.63°N, 119.01°W
Report Text: KFAT 010853Z 12010KT 10SM -RA FEW006 FEW010 OVC055 13/11 A2980 RMK AO2 SLP089 P0002 60025 T01280111 50001 $
Loading
Personal Weather Stations






























Interactive Weather Map
Tropical Storm Tracking
New forecast layout! Learn more

10-Day Weather Forecast

Advertisements
Track Severe Weather on mobile